Aérodrome :
LOGIN :

S'inscrire | Disclaimer

   EN    FR    IT 

 










Légende :    VFR   VFR Marginal   IFR   IFR Intensif   IFR Très Intensif
Visi : 
Plafond : 
>= 8 km
>= 3000ft
5 à 8 km
1000 à 3000 ft
1500m à 5 km
500 à 1000 ft
800 à 1500m
200 à 500 ft
< 800m
< 200 ft
Symboles :   Orages  Brouillard  Fortes neiges  Fortes précipitations  Vent > 20 kt
SIGMETs :   Divers  Orages  Givrage  Turbulence  Onde Orograph.  Cendres Volcan.







- Altitude de l'aérodrome : 1079 ft


ETIK - Illesheim Air Base

DERNIER METAR :
  • 290658Z AUTO 25014KT 9999 -RA OVC013 15/15 A2948 RMK AO2 SLP974 P0007 T01510151

METARs EXPIRÉS :
  • 290643Z AUTO 25014G20KT 9000 -RA BR FEW002 SCT008 BKN013 OVC018 15/15 A2948 RMK AO2 CIG 011V018 SLP974
  • 290613Z AUTO 26010KT 9999 -RA FEW002 SCT008 SCT013 BKN025 OVC050 15/15 A2948 RMK AO2 CIG 013V050 SLP974
  • 290558Z AUTO 26009KT 5000 RA BR FEW002 SCT007 SCT050 OVC065 16/16 A2947 RMK AO2 SLP969 P0010 60095 T01550155 10172 20154 52010
  • 290458Z 27011KT 9999 -RA FEW010 OVC070 16/16 A2946 RMK AO2A SLP966 P0007 T01550155
  • 290443Z AUTO 26012G20KT 9999 -RA FEW009 OVC070 16/16 A2946 RMK AO2 SLP966

TAF TAF ETIK
Valide du 29 à 05h jusqu'au 30 à 11h UTC


290507Z 2905/3011 25012KT 8000 -RA BR FEW009 OVC075 610809 QNH2941INS
TEMPO 2905/2908 3200 SHRA BR BKN009
BECMG 2910/2911 25012KT 9999 NSW FEW015 SCT025 QNH2944INS
BECMG 2918/2919 25009KT 9999 VCSH SCT025 BKN150 QNH2949INS
BECMG 3001/3002 25012KT 9999 NSW FEW015 SCT030 QNH2952INS TX20/2913Z TN13/3005Z
Pas de NOTAMs connus pour ce terrain.



MET'MAP, la Météo Aéronautique d'un coup d'oeil ! - Copyright ORBIFLY Décembre 2007 - Disclaimer

ORBIFLY MET'MAP TEAM :

Programmation & Développement : Alexandra Zaïnal
Conception & Développement : Baudouin d'Aumeries
Co-Programmation & Développement : Marc-Olivier Méhu
Soutien technique & logistique : Manuel Goepfert

Contact : metmap@orbifly.com




SOURCES & CREDITS :

   NOAA